sensor_id;sensor_type;location;lat;lon;timestamp;P1;durP1;ratioP1;P2;durP2;ratioP2
18172;SDS011;9211;48.818;9.312;2023-04-03T00:00:08;5.45;;;2.70;;
18172;SDS011;9211;48.818;9.312;2023-04-03T00:02:36;3.97;;;2.67;;
18172;SDS011;9211;48.818;9.312;2023-04-03T00:05:03;7.03;;;2.60;;
18172;SDS011;9211;48.818;9.312;2023-04-03T00:07:31;4.15;;;2.55;;
18172;SDS011;9211;48.818;9.312;2023-04-03T00:09:57;4.30;;;2.67;;
18172;SDS011;9211;48.818;9.312;2023-04-03T00:12:24;4.13;;;2.42;;
18172;SDS011;9211;48.818;9.312;2023-04-03T00:14:53;8.10;;;2.80;;
18172;SDS011;9211;48.818;9.312;2023-04-03T00:17:20;4.53;;;2.90;;
18172;SDS011;9211;48.818;9.312;2023-04-03T00:19:46;4.80;;;2.90;;
18172;SDS011;9211;48.818;9.312;2023-04-03T00:22:13;4.10;;;2.50;;
18172;SDS011;9211;48.818;9.312;2023-04-03T00:24:40;4.68;;;2.63;;
18172;SDS011;9211;48.818;9.312;2023-04-03T00:27:07;5.32;;;2.75;;
18172;SDS011;9211;48.818;9.312;2023-04-03T00:29:34;4.10;;;2.53;;
18172;SDS011;9211;48.818;9.312;2023-04-03T00:32:03;5.78;;;2.70;;
18172;SDS011;9211;48.818;9.312;2023-04-03T00:34:30;5.45;;;2.72;;
18172;SDS011;9211;48.818;9.312;2023-04-03T00:36:57;6.27;;;2.70;;
18172;SDS011;9211;48.818;9.312;2023-04-03T00:39:24;3.85;;;2.53;;
18172;SDS011;9211;48.818;9.312;2023-04-03T00:41:51;5.05;;;2.70;;
18172;SDS011;9211;48.818;9.312;2023-04-03T00:44:19;4.53;;;2.88;;
18172;SDS011;9211;48.818;9.312;2023-04-03T00:46:47;4.53;;;2.70;;
18172;SDS011;9211;48.818;9.312;2023-04-03T00:49:15;4.28;;;2.90;;
18172;SDS011;9211;48.818;9.312;2023-04-03T00:51:43;5.22;;;2.60;;
18172;SDS011;9211;48.818;9.312;2023-04-03T00:54:10;4.45;;;2.55;;
18172;SDS011;9211;48.818;9.312;2023-04-03T00:56:37;4.78;;;2.70;;
18172;SDS011;9211;48.818;9.312;2023-04-03T00:59:06;6.10;;;2.80;;
18172;SDS011;9211;48.818;9.312;2023-04-03T01:01:36;6.00;;;2.65;;
18172;SDS011;9211;48.818;9.312;2023-04-03T01:04:05;5.90;;;2.72;;
18172;SDS011;9211;48.818;9.312;2023-04-03T01:06:34;4.80;;;2.80;;
18172;SDS011;9211;48.818;9.312;2023-04-03T01:09:07;5.13;;;2.65;;
18172;SDS011;9211;48.818;9.312;2023-04-03T01:11:34;4.70;;;2.77;;
18172;SDS011;9211;48.818;9.312;2023-04-03T01:14:01;5.18;;;2.72;;
18172;SDS011;9211;48.818;9.312;2023-04-03T01:16:29;4.45;;;2.63;;
18172;SDS011;9211;48.818;9.312;2023-04-03T01:18:57;4.72;;;2.90;;
18172;SDS011;9211;48.818;9.312;2023-04-03T01:21:40;5.53;;;2.63;;
18172;SDS011;9211;48.818;9.312;2023-04-03T01:24:22;4.43;;;2.90;;
18172;SDS011;9211;48.818;9.312;2023-04-03T01:27:01;4.50;;;2.78;;
18172;SDS011;9211;48.818;9.312;2023-04-03T01:29:30;4.80;;;2.67;;
18172;SDS011;9211;48.818;9.312;2023-04-03T01:31:59;5.32;;;2.92;;
18172;SDS011;9211;48.818;9.312;2023-04-03T01:34:27;5.45;;;3.00;;
18172;SDS011;9211;48.818;9.312;2023-04-03T01:36:55;4.43;;;2.80;;
18172;SDS011;9211;48.818;9.312;2023-04-03T01:39:22;4.13;;;2.70;;
18172;SDS011;9211;48.818;9.312;2023-04-03T01:41:50;3.55;;;2.53;;
18172;SDS011;9211;48.818;9.312;2023-04-03T01:44:33;4.55;;;2.67;;
18172;SDS011;9211;48.818;9.312;2023-04-03T01:47:01;5.25;;;2.63;;
18172;SDS011;9211;48.818;9.312;2023-04-03T01:49:32;4.90;;;2.80;;
18172;SDS011;9211;48.818;9.312;2023-04-03T01:51:59;3.83;;;2.58;;
18172;SDS011;9211;48.818;9.312;2023-04-03T01:54:26;5.00;;;2.88;;
18172;SDS011;9211;48.818;9.312;2023-04-03T01:56:53;5.03;;;2.88;;
18172;SDS011;9211;48.818;9.312;2023-04-03T01:59:20;5.10;;;2.53;;
18172;SDS011;9211;48.818;9.312;2023-04-03T02:01:47;4.55;;;2.70;;
18172;SDS011;9211;48.818;9.312;2023-04-03T02:04:15;4.97;;;2.60;;
18172;SDS011;9211;48.818;9.312;2023-04-03T02:06:43;5.70;;;3.00;;
18172;SDS011;9211;48.818;9.312;2023-04-03T02:09:12;4.68;;;2.83;;
18172;SDS011;9211;48.818;9.312;2023-04-03T02:11:39;6.07;;;2.83;;
18172;SDS011;9211;48.818;9.312;2023-04-03T02:14:06;4.47;;;2.55;;
18172;SDS011;9211;48.818;9.312;2023-04-03T02:16:33;5.28;;;2.90;;
18172;SDS011;9211;48.818;9.312;2023-04-03T02:19:00;4.57;;;2.70;;
18172;SDS011;9211;48.818;9.312;2023-04-03T02:21:30;4.72;;;2.88;;
18172;SDS011;9211;48.818;9.312;2023-04-03T02:23:57;7.03;;;3.40;;
18172;SDS011;9211;48.818;9.312;2023-04-03T02:26:24;3.53;;;2.50;;
18172;SDS011;9211;48.818;9.312;2023-04-03T02:28:51;4.40;;;2.80;;
18172;SDS011;9211;48.818;9.312;2023-04-03T02:31:18;6.47;;;2.85;;
18172;SDS011;9211;48.818;9.312;2023-04-03T02:33:46;4.07;;;2.30;;
18172;SDS011;9211;48.818;9.312;2023-04-03T02:36:14;5.95;;;2.90;;
18172;SDS011;9211;48.818;9.312;2023-04-03T02:38:48;4.88;;;2.75;;
18172;SDS011;9211;48.818;9.312;2023-04-03T02:41:15;3.97;;;2.75;;
18172;SDS011;9211;48.818;9.312;2023-04-03T02:43:42;5.65;;;2.85;;
18172;SDS011;9211;48.818;9.312;2023-04-03T02:46:09;5.30;;;2.80;;
18172;SDS011;9211;48.818;9.312;2023-04-03T02:48:36;3.70;;;2.70;;
18172;SDS011;9211;48.818;9.312;2023-04-03T02:51:03;4.80;;;2.70;;
18172;SDS011;9211;48.818;9.312;2023-04-03T02:53:31;5.10;;;2.80;;
18172;SDS011;9211;48.818;9.312;2023-04-03T02:56:04;4.00;;;2.65;;
18172;SDS011;9211;48.818;9.312;2023-04-03T02:58:31;4.57;;;2.80;;
18172;SDS011;9211;48.818;9.312;2023-04-03T03:00:59;3.85;;;2.60;;
18172;SDS011;9211;48.818;9.312;2023-04-03T03:03:26;6.03;;;2.72;;
18172;SDS011;9211;48.818;9.312;2023-04-03T03:06:00;4.55;;;2.88;;
18172;SDS011;9211;48.818;9.312;2023-04-03T03:08:28;5.45;;;2.70;;
18172;SDS011;9211;48.818;9.312;2023-04-03T03:10:55;5.17;;;2.50;;
18172;SDS011;9211;48.818;9.312;2023-04-03T03:13:24;5.80;;;2.63;;
18172;SDS011;9211;48.818;9.312;2023-04-03T03:15:51;4.10;;;2.60;;
18172;SDS011;9211;48.818;9.312;2023-04-03T03:18:18;5.22;;;2.70;;
18172;SDS011;9211;48.818;9.312;2023-04-03T03:20:45;6.57;;;2.63;;
18172;SDS011;9211;48.818;9.312;2023-04-03T03:23:12;4.38;;;2.50;;
18172;SDS011;9211;48.818;9.312;2023-04-03T03:25:39;4.80;;;2.40;;
18172;SDS011;9211;48.818;9.312;2023-04-03T03:28:07;4.85;;;2.60;;
18172;SDS011;9211;48.818;9.312;2023-04-03T03:30:35;4.82;;;2.75;;
18172;SDS011;9211;48.818;9.312;2023-04-03T03:33:03;4.35;;;2.60;;
18172;SDS011;9211;48.818;9.312;2023-04-03T03:35:30;4.13;;;2.80;;
18172;SDS011;9211;48.818;9.312;2023-04-03T03:37:57;4.05;;;2.50;;
18172;SDS011;9211;48.818;9.312;2023-04-03T03:40:24;4.88;;;2.53;;
18172;SDS011;9211;48.818;9.312;2023-04-03T03:42:52;3.85;;;2.60;;
18172;SDS011;9211;48.818;9.312;2023-04-03T03:45:19;3.27;;;2.53;;
18172;SDS011;9211;48.818;9.312;2023-04-03T03:47:47;5.35;;;2.80;;
18172;SDS011;9211;48.818;9.312;2023-04-03T03:50:14;4.53;;;2.60;;
18172;SDS011;9211;48.818;9.312;2023-04-03T03:52:42;5.47;;;2.63;;
18172;SDS011;9211;48.818;9.312;2023-04-03T03:55:10;5.60;;;2.65;;
18172;SDS011;9211;48.818;9.312;2023-04-03T03:57:37;4.65;;;2.67;;
18172;SDS011;9211;48.818;9.312;2023-04-03T04:00:05;4.33;;;2.60;;
18172;SDS011;9211;48.818;9.312;2023-04-03T04:02:40;5.80;;;2.53;;
18172;SDS011;9211;48.818;9.312;2023-04-03T04:05:13;6.80;;;2.72;;
18172;SDS011;9211;48.818;9.312;2023-04-03T04:07:40;7.75;;;2.40;;
18172;SDS011;9211;48.818;9.312;2023-04-03T04:10:08;4.80;;;2.50;;
18172;SDS011;9211;48.818;9.312;2023-04-03T04:12:35;5.28;;;2.38;;
18172;SDS011;9211;48.818;9.312;2023-04-03T04:15:03;4.15;;;2.40;;
18172;SDS011;9211;48.818;9.312;2023-04-03T04:17:31;4.35;;;2.38;;
18172;SDS011;9211;48.818;9.312;2023-04-03T04:19:58;4.38;;;2.17;;
18172;SDS011;9211;48.818;9.312;2023-04-03T04:22:27;5.13;;;2.40;;
18172;SDS011;9211;48.818;9.312;2023-04-03T04:24:54;5.78;;;2.50;;
18172;SDS011;9211;48.818;9.312;2023-04-03T04:27:21;5.43;;;2.40;;
18172;SDS011;9211;48.818;9.312;2023-04-03T04:29:48;3.65;;;2.20;;
18172;SDS011;9211;48.818;9.312;2023-04-03T04:32:16;4.68;;;2.35;;
18172;SDS011;9211;48.818;9.312;2023-04-03T04:34:44;3.00;;;2.00;;
18172;SDS011;9211;48.818;9.312;2023-04-03T04:37:11;4.03;;;2.13;;
18172;SDS011;9211;48.818;9.312;2023-04-03T04:39:39;5.22;;;2.40;;
18172;SDS011;9211;48.818;9.312;2023-04-03T04:42:07;4.18;;;2.00;;
18172;SDS011;9211;48.818;9.312;2023-04-03T04:44:39;4.80;;;2.35;;
18172;SDS011;9211;48.818;9.312;2023-04-03T04:47:07;4.25;;;2.10;;
18172;SDS011;9211;48.818;9.312;2023-04-03T04:49:33;5.88;;;2.25;;
18172;SDS011;9211;48.818;9.312;2023-04-03T04:52:02;4.60;;;2.17;;
18172;SDS011;9211;48.818;9.312;2023-04-03T04:54:30;6.68;;;2.20;;
18172;SDS011;9211;48.818;9.312;2023-04-03T04:56:59;4.00;;;2.50;;
18172;SDS011;9211;48.818;9.312;2023-04-03T04:59:27;4.20;;;2.30;;
18172;SDS011;9211;48.818;9.312;2023-04-03T05:01:57;3.33;;;2.35;;
18172;SDS011;9211;48.818;9.312;2023-04-03T05:04:25;5.32;;;2.40;;
18172;SDS011;9211;48.818;9.312;2023-04-03T05:06:59;3.40;;;2.30;;
18172;SDS011;9211;48.818;9.312;2023-04-03T05:09:28;6.45;;;2.40;;
18172;SDS011;9211;48.818;9.312;2023-04-03T05:11:55;4.00;;;2.38;;
18172;SDS011;9211;48.818;9.312;2023-04-03T05:14:27;4.77;;;2.60;;
18172;SDS011;9211;48.818;9.312;2023-04-03T05:16:59;5.38;;;2.63;;
18172;SDS011;9211;48.818;9.312;2023-04-03T05:19:28;5.13;;;2.60;;
18172;SDS011;9211;48.818;9.312;2023-04-03T05:21:57;4.77;;;2.70;;
18172;SDS011;9211;48.818;9.312;2023-04-03T05:24:24;5.15;;;3.03;;
18172;SDS011;9211;48.818;9.312;2023-04-03T05:26:51;4.90;;;2.78;;
18172;SDS011;9211;48.818;9.312;2023-04-03T05:29:18;4.60;;;2.80;;
18172;SDS011;9211;48.818;9.312;2023-04-03T05:31:47;5.32;;;2.78;;
18172;SDS011;9211;48.818;9.312;2023-04-03T05:34:16;4.40;;;2.58;;
18172;SDS011;9211;48.818;9.312;2023-04-03T05:36:45;4.80;;;2.70;;
18172;SDS011;9211;48.818;9.312;2023-04-03T05:39:14;5.03;;;2.67;;
18172;SDS011;9211;48.818;9.312;2023-04-03T05:41:43;4.20;;;2.60;;
18172;SDS011;9211;48.818;9.312;2023-04-03T05:44:10;4.55;;;2.80;;
18172;SDS011;9211;48.818;9.312;2023-04-03T05:46:38;4.20;;;2.38;;
18172;SDS011;9211;48.818;9.312;2023-04-03T05:49:09;4.35;;;2.60;;
18172;SDS011;9211;48.818;9.312;2023-04-03T05:51:37;4.53;;;2.50;;
18172;SDS011;9211;48.818;9.312;2023-04-03T05:54:17;6.53;;;2.90;;
18172;SDS011;9211;48.818;9.312;2023-04-03T05:56:48;6.00;;;2.60;;
18172;SDS011;9211;48.818;9.312;2023-04-03T05:59:16;3.97;;;2.60;;
18172;SDS011;9211;48.818;9.312;2023-04-03T06:01:43;4.88;;;2.55;;
18172;SDS011;9211;48.818;9.312;2023-04-03T06:04:13;5.35;;;2.60;;
18172;SDS011;9211;48.818;9.312;2023-04-03T06:06:44;5.95;;;2.47;;
18172;SDS011;9211;48.818;9.312;2023-04-03T06:09:12;7.78;;;2.72;;
18172;SDS011;9211;48.818;9.312;2023-04-03T06:11:40;4.90;;;2.70;;
18172;SDS011;9211;48.818;9.312;2023-04-03T06:14:08;6.55;;;2.70;;
18172;SDS011;9211;48.818;9.312;2023-04-03T06:16:36;4.97;;;2.70;;
18172;SDS011;9211;48.818;9.312;2023-04-03T06:19:06;5.95;;;2.63;;
18172;SDS011;9211;48.818;9.312;2023-04-03T06:21:34;7.30;;;3.20;;
18172;SDS011;9211;48.818;9.312;2023-04-03T06:24:02;5.28;;;2.65;;
18172;SDS011;9211;48.818;9.312;2023-04-03T06:26:29;5.55;;;3.03;;
18172;SDS011;9211;48.818;9.312;2023-04-03T06:28:56;5.97;;;2.75;;
18172;SDS011;9211;48.818;9.312;2023-04-03T06:31:23;4.93;;;2.50;;
18172;SDS011;9211;48.818;9.312;2023-04-03T06:33:50;4.25;;;2.40;;
18172;SDS011;9211;48.818;9.312;2023-04-03T06:36:17;4.30;;;2.65;;
18172;SDS011;9211;48.818;9.312;2023-04-03T06:38:47;4.05;;;2.33;;
18172;SDS011;9211;48.818;9.312;2023-04-03T06:41:15;4.20;;;2.30;;
18172;SDS011;9211;48.818;9.312;2023-04-03T06:43:42;6.40;;;2.70;;
18172;SDS011;9211;48.818;9.312;2023-04-03T06:46:12;5.55;;;2.50;;
18172;SDS011;9211;48.818;9.312;2023-04-03T06:48:41;5.03;;;2.65;;
18172;SDS011;9211;48.818;9.312;2023-04-03T06:51:13;4.43;;;2.50;;
18172;SDS011;9211;48.818;9.312;2023-04-03T06:53:45;4.80;;;2.47;;
18172;SDS011;9211;48.818;9.312;2023-04-03T06:56:13;6.55;;;2.45;;
18172;SDS011;9211;48.818;9.312;2023-04-03T06:58:41;4.40;;;2.30;;
18172;SDS011;9211;48.818;9.312;2023-04-03T07:01:09;3.67;;;2.30;;
18172;SDS011;9211;48.818;9.312;2023-04-03T07:03:37;4.55;;;2.40;;
18172;SDS011;9211;48.818;9.312;2023-04-03T07:06:05;4.70;;;2.30;;
18172;SDS011;9211;48.818;9.312;2023-04-03T07:08:34;4.32;;;2.30;;
18172;SDS011;9211;48.818;9.312;2023-04-03T07:11:01;4.78;;;2.47;;
18172;SDS011;9211;48.818;9.312;2023-04-03T07:13:29;4.70;;;2.45;;
18172;SDS011;9211;48.818;9.312;2023-04-03T07:15:56;6.70;;;2.60;;
18172;SDS011;9211;48.818;9.312;2023-04-03T07:18:23;4.68;;;2.40;;
18172;SDS011;9211;48.818;9.312;2023-04-03T07:20:51;4.65;;;2.53;;
18172;SDS011;9211;48.818;9.312;2023-04-03T07:23:18;5.70;;;2.80;;
18172;SDS011;9211;48.818;9.312;2023-04-03T07:25:46;6.78;;;2.50;;
18172;SDS011;9211;48.818;9.312;2023-04-03T07:28:14;3.70;;;2.30;;
18172;SDS011;9211;48.818;9.312;2023-04-03T07:30:43;6.10;;;2.50;;
18172;SDS011;9211;48.818;9.312;2023-04-03T07:33:11;4.83;;;2.30;;
18172;SDS011;9211;48.818;9.312;2023-04-03T07:35:39;4.70;;;2.10;;
18172;SDS011;9211;48.818;9.312;2023-04-03T07:38:07;4.40;;;2.10;;
18172;SDS011;9211;48.818;9.312;2023-04-03T07:40:34;4.43;;;2.25;;
18172;SDS011;9211;48.818;9.312;2023-04-03T07:43:02;4.90;;;2.30;;
18172;SDS011;9211;48.818;9.312;2023-04-03T07:45:29;5.45;;;2.30;;
18172;SDS011;9211;48.818;9.312;2023-04-03T07:47:58;6.25;;;2.30;;
18172;SDS011;9211;48.818;9.312;2023-04-03T07:50:25;4.15;;;2.10;;
18172;SDS011;9211;48.818;9.312;2023-04-03T07:52:52;4.90;;;2.20;;
18172;SDS011;9211;48.818;9.312;2023-04-03T07:55:19;4.15;;;2.15;;
18172;SDS011;9211;48.818;9.312;2023-04-03T07:57:46;6.68;;;2.30;;
18172;SDS011;9211;48.818;9.312;2023-04-03T08:00:13;5.88;;;2.30;;
18172;SDS011;9211;48.818;9.312;2023-04-03T08:02:42;5.07;;;2.15;;
18172;SDS011;9211;48.818;9.312;2023-04-03T08:05:16;3.92;;;2.00;;
18172;SDS011;9211;48.818;9.312;2023-04-03T08:07:43;4.50;;;2.42;;
18172;SDS011;9211;48.818;9.312;2023-04-03T08:10:11;4.05;;;2.25;;
18172;SDS011;9211;48.818;9.312;2023-04-03T08:12:39;6.50;;;3.15;;
18172;SDS011;9211;48.818;9.312;2023-04-03T08:15:06;9.02;;;3.67;;
18172;SDS011;9211;48.818;9.312;2023-04-03T08:17:34;5.18;;;2.50;;
18172;SDS011;9211;48.818;9.312;2023-04-03T08:20:02;7.10;;;2.60;;
18172;SDS011;9211;48.818;9.312;2023-04-03T08:22:31;5.10;;;2.25;;
18172;SDS011;9211;48.818;9.312;2023-04-03T08:24:58;6.40;;;2.20;;
18172;SDS011;9211;48.818;9.312;2023-04-03T08:27:26;6.20;;;2.40;;
18172;SDS011;9211;48.818;9.312;2023-04-03T08:29:54;4.38;;;2.10;;
18172;SDS011;9211;48.818;9.312;2023-04-03T08:32:21;7.25;;;2.60;;
18172;SDS011;9211;48.818;9.312;2023-04-03T08:34:49;4.60;;;2.65;;
18172;SDS011;9211;48.818;9.312;2023-04-03T08:37:16;5.93;;;2.33;;
18172;SDS011;9211;48.818;9.312;2023-04-03T08:39:45;6.57;;;2.53;;
18172;SDS011;9211;48.818;9.312;2023-04-03T08:42:14;4.10;;;2.17;;
18172;SDS011;9211;48.818;9.312;2023-04-03T08:44:47;5.50;;;2.20;;
18172;SDS011;9211;48.818;9.312;2023-04-03T08:47:23;5.30;;;2.40;;
18172;SDS011;9211;48.818;9.312;2023-04-03T08:49:51;5.67;;;2.30;;
18172;SDS011;9211;48.818;9.312;2023-04-03T08:52:23;5.70;;;2.43;;
18172;SDS011;9211;48.818;9.312;2023-04-03T08:55:01;5.10;;;2.22;;
18172;SDS011;9211;48.818;9.312;2023-04-03T08:57:31;6.30;;;2.17;;
18172;SDS011;9211;48.818;9.312;2023-04-03T09:00:04;4.90;;;2.20;;
18172;SDS011;9211;48.818;9.312;2023-04-03T09:02:34;7.43;;;3.45;;
18172;SDS011;9211;48.818;9.312;2023-04-03T09:05:10;4.78;;;2.30;;
18172;SDS011;9211;48.818;9.312;2023-04-03T09:07:42;7.50;;;2.28;;
18172;SDS011;9211;48.818;9.312;2023-04-03T09:10:13;5.70;;;2.17;;
18172;SDS011;9211;48.818;9.312;2023-04-03T09:12:41;4.27;;;2.10;;
18172;SDS011;9211;48.818;9.312;2023-04-03T09:15:15;4.20;;;2.13;;
18172;SDS011;9211;48.818;9.312;2023-04-03T09:17:47;7.22;;;2.55;;
18172;SDS011;9211;48.818;9.312;2023-04-03T09:20:27;4.25;;;2.22;;
18172;SDS011;9211;48.818;9.312;2023-04-03T09:23:04;4.78;;;2.10;;
18172;SDS011;9211;48.818;9.312;2023-04-03T09:25:43;6.00;;;2.25;;
18172;SDS011;9211;48.818;9.312;2023-04-03T09:28:10;4.90;;;2.50;;
18172;SDS011;9211;48.818;9.312;2023-04-03T09:30:37;5.97;;;2.20;;
18172;SDS011;9211;48.818;9.312;2023-04-03T09:33:04;5.28;;;2.67;;
18172;SDS011;9211;48.818;9.312;2023-04-03T09:35:33;5.73;;;2.10;;
18172;SDS011;9211;48.818;9.312;2023-04-03T09:38:02;5.95;;;2.20;;
18172;SDS011;9211;48.818;9.312;2023-04-03T09:40:44;8.00;;;2.33;;
18172;SDS011;9211;48.818;9.312;2023-04-03T09:43:23;5.22;;;2.40;;
18172;SDS011;9211;48.818;9.312;2023-04-03T09:45:52;4.47;;;2.17;;
18172;SDS011;9211;48.818;9.312;2023-04-03T09:48:20;3.90;;;1.90;;
18172;SDS011;9211;48.818;9.312;2023-04-03T09:50:53;4.22;;;2.00;;
18172;SDS011;9211;48.818;9.312;2023-04-03T09:53:28;3.30;;;1.83;;
18172;SDS011;9211;48.818;9.312;2023-04-03T09:55:58;8.50;;;2.20;;
18172;SDS011;9211;48.818;9.312;2023-04-03T09:58:28;6.63;;;2.00;;
18172;SDS011;9211;48.818;9.312;2023-04-03T10:00:59;4.63;;;1.95;;
18172;SDS011;9211;48.818;9.312;2023-04-03T10:03:29;5.67;;;2.03;;
18172;SDS011;9211;48.818;9.312;2023-04-03T10:05:57;4.15;;;2.10;;
18172;SDS011;9211;48.818;9.312;2023-04-03T10:08:26;4.82;;;2.13;;
18172;SDS011;9211;48.818;9.312;2023-04-03T10:11:07;6.38;;;2.10;;
18172;SDS011;9211;48.818;9.312;2023-04-03T10:13:55;7.03;;;2.50;;
18172;SDS011;9211;48.818;9.312;2023-04-03T10:16:29;6.75;;;2.67;;
18172;SDS011;9211;48.818;9.312;2023-04-03T10:19:09;7.65;;;2.60;;
18172;SDS011;9211;48.818;9.312;2023-04-03T10:21:53;7.53;;;2.92;;
18172;SDS011;9211;48.818;9.312;2023-04-03T10:24:28;5.03;;;2.27;;
18172;SDS011;9211;48.818;9.312;2023-04-03T10:27:04;5.38;;;2.28;;
18172;SDS011;9211;48.818;9.312;2023-04-03T10:29:39;4.30;;;2.10;;
18172;SDS011;9211;48.818;9.312;2023-04-03T10:32:20;6.47;;;2.17;;
18172;SDS011;9211;48.818;9.312;2023-04-03T10:34:57;4.07;;;1.90;;
18172;SDS011;9211;48.818;9.312;2023-04-03T10:37:35;5.93;;;2.40;;
18172;SDS011;9211;48.818;9.312;2023-04-03T10:40:14;7.87;;;2.70;;
18172;SDS011;9211;48.818;9.312;2023-04-03T10:42:49;4.00;;;1.93;;
18172;SDS011;9211;48.818;9.312;2023-04-03T10:45:22;6.15;;;1.70;;
18172;SDS011;9211;48.818;9.312;2023-04-03T10:47:55;4.03;;;1.70;;
18172;SDS011;9211;48.818;9.312;2023-04-03T10:50:31;4.63;;;2.13;;
18172;SDS011;9211;48.818;9.312;2023-04-03T10:53:08;4.00;;;1.70;;
18172;SDS011;9211;48.818;9.312;2023-04-03T10:55:45;5.70;;;2.00;;
18172;SDS011;9211;48.818;9.312;2023-04-03T10:58:20;3.90;;;1.83;;
18172;SDS011;9211;48.818;9.312;2023-04-03T11:00:51;3.95;;;1.70;;
18172;SDS011;9211;48.818;9.312;2023-04-03T11:03:24;3.70;;;1.55;;
18172;SDS011;9211;48.818;9.312;2023-04-03T11:05:57;4.57;;;1.77;;
18172;SDS011;9211;48.818;9.312;2023-04-03T11:08:29;4.63;;;1.45;;
18172;SDS011;9211;48.818;9.312;2023-04-03T11:11:02;3.53;;;1.67;;
18172;SDS011;9211;48.818;9.312;2023-04-03T11:13:34;4.43;;;1.90;;
18172;SDS011;9211;48.818;9.312;2023-04-03T11:16:06;6.45;;;2.88;;
18172;SDS011;9211;48.818;9.312;2023-04-03T11:18:35;10.70;;;3.95;;
18172;SDS011;9211;48.818;9.312;2023-04-03T11:21:07;5.90;;;1.70;;
18172;SDS011;9211;48.818;9.312;2023-04-03T11:23:39;5.00;;;1.70;;
18172;SDS011;9211;48.818;9.312;2023-04-03T11:26:08;4.75;;;1.90;;
18172;SDS011;9211;48.818;9.312;2023-04-03T11:28:38;4.90;;;1.90;;
18172;SDS011;9211;48.818;9.312;2023-04-03T11:31:10;2.70;;;1.60;;
18172;SDS011;9211;48.818;9.312;2023-04-03T11:33:51;4.65;;;1.80;;
18172;SDS011;9211;48.818;9.312;2023-04-03T11:36:28;4.22;;;1.88;;
18172;SDS011;9211;48.818;9.312;2023-04-03T11:38:57;4.07;;;1.90;;
18172;SDS011;9211;48.818;9.312;2023-04-03T11:41:28;3.77;;;1.73;;
18172;SDS011;9211;48.818;9.312;2023-04-03T11:43:58;4.03;;;1.73;;
18172;SDS011;9211;48.818;9.312;2023-04-03T11:58:25;4.72;;;1.70;;
18172;SDS011;9211;48.818;9.312;2023-04-03T12:00:56;4.15;;;1.73;;
18172;SDS011;9211;48.818;9.312;2023-04-03T12:09:29;3.63;;;1.60;;
18172;SDS011;9211;48.818;9.312;2023-04-03T12:12:00;3.30;;;1.77;;
18172;SDS011;9211;48.818;9.312;2023-04-03T12:14:46;5.22;;;2.58;;
18172;SDS011;9211;48.818;9.312;2023-04-03T12:17:19;4.38;;;2.10;;
18172;SDS011;9211;48.818;9.312;2023-04-03T12:19:50;4.00;;;1.95;;
18172;SDS011;9211;48.818;9.312;2023-04-03T12:22:17;4.22;;;1.60;;
18172;SDS011;9211;48.818;9.312;2023-04-03T12:24:46;3.60;;;1.70;;
18172;SDS011;9211;48.818;9.312;2023-04-03T12:27:23;4.93;;;1.83;;
18172;SDS011;9211;48.818;9.312;2023-04-03T12:29:56;5.15;;;1.60;;
18172;SDS011;9211;48.818;9.312;2023-04-03T12:35:30;6.17;;;2.10;;
18172;SDS011;9211;48.818;9.312;2023-04-03T12:38:12;4.60;;;1.92;;
18172;SDS011;9211;48.818;9.312;2023-04-03T12:41:04;4.60;;;2.00;;
18172;SDS011;9211;48.818;9.312;2023-04-03T12:43:47;7.18;;;1.77;;
18172;SDS011;9211;48.818;9.312;2023-04-03T12:46:26;6.30;;;1.98;;
18172;SDS011;9211;48.818;9.312;2023-04-03T12:49:04;3.22;;;1.60;;
18172;SDS011;9211;48.818;9.312;2023-04-03T12:51:47;5.53;;;1.90;;
18172;SDS011;9211;48.818;9.312;2023-04-03T12:54:15;5.73;;;2.10;;
18172;SDS011;9211;48.818;9.312;2023-04-03T12:56:46;4.87;;;1.60;;
18172;SDS011;9211;48.818;9.312;2023-04-03T12:59:14;4.70;;;1.52;;
18172;SDS011;9211;48.818;9.312;2023-04-03T13:01:42;4.35;;;1.75;;
18172;SDS011;9211;48.818;9.312;2023-04-03T13:04:10;5.40;;;1.90;;
18172;SDS011;9211;48.818;9.312;2023-04-03T13:06:39;5.30;;;2.50;;
18172;SDS011;9211;48.818;9.312;2023-04-03T13:09:19;6.57;;;2.80;;
18172;SDS011;9211;48.818;9.312;2023-04-03T13:11:48;4.75;;;1.90;;
18172;SDS011;9211;48.818;9.312;2023-04-03T13:14:18;4.70;;;1.63;;
18172;SDS011;9211;48.818;9.312;2023-04-03T13:16:53;3.50;;;1.85;;
18172;SDS011;9211;48.818;9.312;2023-04-03T13:19:22;4.05;;;2.00;;
18172;SDS011;9211;48.818;9.312;2023-04-03T13:21:50;4.30;;;1.90;;
18172;SDS011;9211;48.818;9.312;2023-04-03T13:24:24;4.50;;;1.75;;
18172;SDS011;9211;48.818;9.312;2023-04-03T13:26:52;4.03;;;1.87;;
18172;SDS011;9211;48.818;9.312;2023-04-03T13:29:22;3.83;;;1.90;;
18172;SDS011;9211;48.818;9.312;2023-04-03T13:31:52;4.40;;;1.85;;
18172;SDS011;9211;48.818;9.312;2023-04-03T13:34:21;4.82;;;1.75;;
18172;SDS011;9211;48.818;9.312;2023-04-03T13:36:58;4.93;;;1.85;;
18172;SDS011;9211;48.818;9.312;2023-04-03T13:39:28;5.60;;;1.90;;
18172;SDS011;9211;48.818;9.312;2023-04-03T13:41:57;4.78;;;1.90;;
18172;SDS011;9211;48.818;9.312;2023-04-03T13:44:32;6.97;;;2.45;;
18172;SDS011;9211;48.818;9.312;2023-04-03T13:47:01;4.32;;;2.22;;
18172;SDS011;9211;48.818;9.312;2023-04-03T13:49:43;5.13;;;1.90;;
18172;SDS011;9211;48.818;9.312;2023-04-03T13:52:24;4.35;;;2.10;;
18172;SDS011;9211;48.818;9.312;2023-04-03T13:54:57;5.85;;;1.90;;
18172;SDS011;9211;48.818;9.312;2023-04-03T13:57:25;4.82;;;1.85;;
18172;SDS011;9211;48.818;9.312;2023-04-03T13:59:53;4.20;;;1.80;;
18172;SDS011;9211;48.818;9.312;2023-04-03T14:02:22;3.88;;;1.90;;
18172;SDS011;9211;48.818;9.312;2023-04-03T14:04:56;4.63;;;1.80;;
18172;SDS011;9211;48.818;9.312;2023-04-03T14:07:26;5.57;;;2.20;;
18172;SDS011;9211;48.818;9.312;2023-04-03T14:09:56;4.10;;;1.80;;
18172;SDS011;9211;48.818;9.312;2023-04-03T14:12:24;4.22;;;1.88;;
18172;SDS011;9211;48.818;9.312;2023-04-03T14:14:53;5.97;;;1.95;;
18172;SDS011;9211;48.818;9.312;2023-04-03T14:17:22;4.50;;;1.95;;
18172;SDS011;9211;48.818;9.312;2023-04-03T14:19:52;3.88;;;2.00;;
18172;SDS011;9211;48.818;9.312;2023-04-03T14:22:21;3.88;;;1.90;;
18172;SDS011;9211;48.818;9.312;2023-04-03T14:24:50;3.75;;;1.90;;
18172;SDS011;9211;48.818;9.312;2023-04-03T14:27:20;5.60;;;1.80;;
18172;SDS011;9211;48.818;9.312;2023-04-03T14:29:48;5.90;;;2.00;;
18172;SDS011;9211;48.818;9.312;2023-04-03T14:32:18;5.68;;;1.90;;
18172;SDS011;9211;48.818;9.312;2023-04-03T14:34:47;4.25;;;2.00;;
18172;SDS011;9211;48.818;9.312;2023-04-03T14:37:16;5.90;;;1.93;;
18172;SDS011;9211;48.818;9.312;2023-04-03T14:39:44;6.45;;;2.78;;
18172;SDS011;9211;48.818;9.312;2023-04-03T14:42:12;2.50;;;1.80;;
18172;SDS011;9211;48.818;9.312;2023-04-03T14:44:42;4.97;;;2.00;;
18172;SDS011;9211;48.818;9.312;2023-04-03T14:47:10;4.25;;;2.17;;
18172;SDS011;9211;48.818;9.312;2023-04-03T14:49:39;3.33;;;1.63;;
18172;SDS011;9211;48.818;9.312;2023-04-03T14:52:06;3.78;;;2.10;;
18172;SDS011;9211;48.818;9.312;2023-04-03T14:54:42;6.63;;;2.08;;
18172;SDS011;9211;48.818;9.312;2023-04-03T14:57:09;5.45;;;2.70;;
18172;SDS011;9211;48.818;9.312;2023-04-03T14:59:41;4.45;;;2.00;;
18172;SDS011;9211;48.818;9.312;2023-04-03T15:02:23;5.20;;;2.08;;
18172;SDS011;9211;48.818;9.312;2023-04-03T15:04:53;6.18;;;2.00;;
18172;SDS011;9211;48.818;9.312;2023-04-03T15:07:20;3.60;;;1.90;;
18172;SDS011;9211;48.818;9.312;2023-04-03T15:09:47;3.05;;;1.73;;
18172;SDS011;9211;48.818;9.312;2023-04-03T15:12:15;4.18;;;1.60;;
18172;SDS011;9211;48.818;9.312;2023-04-03T15:14:44;3.87;;;1.83;;
18172;SDS011;9211;48.818;9.312;2023-04-03T15:17:13;5.53;;;2.22;;
18172;SDS011;9211;48.818;9.312;2023-04-03T15:19:43;5.50;;;1.67;;
18172;SDS011;9211;48.818;9.312;2023-04-03T15:22:12;4.65;;;1.90;;
18172;SDS011;9211;48.818;9.312;2023-04-03T15:24:41;5.82;;;1.90;;
18172;SDS011;9211;48.818;9.312;2023-04-03T15:27:08;4.25;;;1.83;;
18172;SDS011;9211;48.818;9.312;2023-04-03T15:29:35;4.25;;;2.05;;
18172;SDS011;9211;48.818;9.312;2023-04-03T15:32:04;3.45;;;1.73;;
18172;SDS011;9211;48.818;9.312;2023-04-03T15:34:31;3.33;;;1.65;;
18172;SDS011;9211;48.818;9.312;2023-04-03T15:36:58;3.20;;;1.60;;